Time;durP1;ratioP1;P1;durP2;ratioP2;P2;SDS_P1;SDS_P2;PMS_P1;PMS_P2;Temp;Humidity;BMP_temperature;BMP_pressure;BME280_temperature;BME280_humidity;BME280_pressure;Samples;Min_cycle;Max_cycle;Signal;HPM_P1;HPM_P2
2022/11/15 00:00:33;;;;;;;18.20;2.50;;;12.40;99.90;;;;;;5047400;28;20177;-58
2022/11/15 00:02:59;;;;;;;15.37;1.63;;;12.40;99.90;;;;;;5050385;28;20196;-57
2022/11/15 00:05:24;;;;;;;10.40;1.47;;;12.40;99.90;;;;;;5051070;28;20185;-57
2022/11/15 00:07:50;;;;;;;11.80;1.70;;;12.40;99.90;;;;;;5051181;28;20703;-57
2022/11/15 00:10:16;;;;;;;13.20;1.80;;;12.50;99.90;;;;;;5051402;28;20177;-58
2022/11/15 00:12:41;;;;;;;16.03;1.87;;;12.50;99.90;;;;;;5051038;28;20247;-57
2022/11/15 00:15:07;;;;;;;12.80;1.47;;;12.40;99.90;;;;;;5050316;28;20200;-58
2022/11/15 00:17:33;;;;;;;13.80;1.60;;;12.50;99.90;;;;;;5050677;28;20663;-57
2022/11/15 00:19:59;;;;;;;18.10;1.70;;;12.40;99.90;;;;;;5051155;28;20181;-58
2022/11/15 00:22:24;;;;;;;11.70;2.30;;;12.40;99.90;;;;;;5049466;28;20185;-58
2022/11/15 00:24:50;;;;;;;12.73;2.23;;;12.50;99.90;;;;;;5050898;28;20231;-58
2022/11/15 00:27:16;;;;;;;11.77;1.63;;;;;;;;;;5050833;28;20181;-58
2022/11/15 00:29:43;;;;;;;11.97;1.83;;;12.50;99.90;;;;;;5050546;28;20239;-58
2022/11/15 00:32:11;;;;;;;9.47;1.37;;;12.50;99.90;;;;;;5050761;28;20256;-58
2022/11/15 00:34:37;;;;;;;7.03;1.13;;;12.50;99.90;;;;;;5050321;28;20180;-58
2022/11/15 00:37:03;;;;;;;16.10;1.63;;;12.60;99.90;;;;;;5050486;28;20181;-57
2022/11/15 00:39:28;;;;;;;16.47;1.40;;;12.60;99.90;;;;;;5051200;28;20516;-57
2022/11/15 00:41:54;;;;;;;10.50;1.30;;;12.60;99.90;;;;;;5050814;28;20647;-57
2022/11/15 00:44:20;;;;;;;9.03;1.13;;;;;;;;;;5050649;28;20213;-57
2022/11/15 00:46:45;;;;;;;10.63;1.80;;;12.50;99.90;;;;;;5032581;28;20189;-57
2022/11/15 00:49:11;;;;;;;14.97;1.60;;;12.60;99.90;;;;;;5050722;28;20220;-57
2022/11/15 00:51:37;;;;;;;15.00;2.00;;;12.60;99.90;;;;;;5032730;28;20352;-61
2022/11/15 00:54:02;;;;;;;10.07;1.60;;;12.70;99.90;;;;;;5050649;28;20176;-57
2022/11/15 00:56:28;;;;;;;11.10;1.83;;;16.40;99.90;;;;;;5044721;28;20272;-57
2022/11/15 00:58:54;;;;;;;14.30;1.93;;;12.50;99.90;;;;;;5048304;28;20185;-57
2022/11/15 01:01:19;;;;;;;13.57;1.77;;;12.70;99.90;;;;;;5046552;28;20192;-57
2022/11/15 01:03:45;;;;;;;17.23;1.87;;;12.60;99.90;;;;;;5044745;28;20273;-57
2022/11/15 01:06:11;;;;;;;13.90;2.37;;;12.60;99.90;;;;;;5050696;28;20583;-57
2022/11/15 01:08:39;;;;;;;15.27;1.93;;;12.60;99.90;;;;;;5050357;28;20226;-57
2022/11/15 01:11:10;;;;;;;11.23;1.30;;;12.60;99.90;;;;;;5050522;28;20226;-57
2022/11/15 01:13:37;;;;;;;14.13;2.07;;;12.70;99.90;;;;;;5050438;28;20215;-57
2022/11/15 01:16:08;;;;;;;11.47;1.70;;;12.70;99.90;;;;;;5050541;28;20323;-57
2022/11/15 01:18:33;;;;;;;15.27;2.00;;;12.80;99.90;;;;;;5050616;28;20184;-58
2022/11/15 01:20:59;;;;;;;18.67;1.50;;;12.70;99.90;;;;;;5050319;28;20185;-57
2022/11/15 01:23:25;;;;;;;18.13;2.10;;;12.70;99.90;;;;;;5050379;28;20174;-57
2022/11/15 01:25:51;;;;;;;10.00;1.63;;;;;;;;;;5050207;28;20248;-57
2022/11/15 01:28:16;;;;;;;14.73;1.73;;;12.00;99.90;;;;;;5050263;28;20184;-57
2022/11/15 01:30:42;;;;;;;14.83;1.70;;;12.70;99.90;;;;;;5050105;28;20180;-57
2022/11/15 01:33:07;;;;;;;9.87;1.20;;;12.70;99.90;;;;;;5050276;28;20255;-57
2022/11/15 01:35:33;;;;;;;8.93;1.53;;;12.70;99.90;;;;;;5049861;28;20318;-57
2022/11/15 01:37:58;;;;;;;10.90;1.73;;;12.70;99.90;;;;;;5049931;28;20181;-57
2022/11/15 01:40:24;;;;;;;17.57;1.67;;;12.60;99.90;;;;;;5050211;28;20268;-57
2022/11/15 01:42:50;;;;;;;10.67;1.43;;;12.60;99.90;;;;;;5050128;28;20246;-57
2022/11/15 01:45:16;;;;;;;17.47;1.93;;;12.60;99.90;;;;;;5052730;28;20537;-57
2022/11/15 01:47:48;;;;;;;13.97;2.00;;;12.60;99.90;;;;;;5053839;28;20173;-57
2022/11/15 01:50:21;;;;;;;10.20;1.63;;;12.70;99.90;;;;;;5054125;28;20196;-57
2022/11/15 01:52:46;;;;;;;13.43;2.10;;;12.60;99.90;;;;;;5053858;28;20209;-56
2022/11/15 01:55:21;;;;;;;14.47;1.93;;;12.60;99.90;;;;;;5053583;28;20181;-56
2022/11/15 01:57:50;;;;;;;27.03;2.30;;;12.60;99.90;;;;;;5052423;28;20183;-56
2022/11/15 02:00:16;;;;;;;11.63;1.47;;;12.70;99.90;;;;;;5052750;28;20226;-57
2022/11/15 02:02:42;;;;;;;15.67;1.67;;;12.60;99.90;;;;;;5051434;28;20178;-56
2022/11/15 02:05:08;;;;;;;14.17;1.77;;;12.60;99.90;;;;;;5052481;28;20188;-56
2022/11/15 02:07:35;;;;;;;14.73;2.00;;;12.60;99.90;;;;;;5052346;28;20225;-57
2022/11/15 02:10:10;;;;;;;14.57;1.53;;;12.70;99.90;;;;;;5052119;28;20223;-57
2022/11/15 02:12:36;;;;;;;10.83;1.60;;;12.70;99.90;;;;;;5037791;28;20597;-56
2022/11/15 02:15:04;;;;;;;7.97;1.30;;;12.80;99.90;;;;;;5040344;28;20192;-57
2022/11/15 02:17:40;;;;;;;15.53;1.83;;;12.70;99.90;;;;;;5053289;28;20272;-56
2022/11/15 02:20:11;;;;;;;12.60;1.07;;;12.70;99.90;;;;;;5053314;28;20177;-56
2022/11/15 02:22:46;;;;;;;13.33;1.83;;;13.60;99.90;;;;;;5053380;28;20185;-56
2022/11/15 02:25:23;;;;;;;9.40;1.20;;;12.50;99.90;;;;;;5051834;28;20208;-56
2022/11/15 02:28:07;;;;;;;14.73;1.70;;;12.70;99.90;;;;;;5052995;28;20177;-56
2022/11/15 02:30:51;;;;;;;19.03;2.00;;;13.70;99.90;;;;;;5053492;28;20180;-56
2022/11/15 02:34:00;;;;;;;12.50;1.50;;;12.60;99.90;;;;;;5052533;28;20228;-56
2022/11/15 02:36:41;;;;;;;8.13;1.00;;;12.60;99.90;;;;;;5052094;28;20264;-56
2022/11/15 02:39:36;;;;;;;18.73;2.50;;;12.40;99.90;;;;;;5053060;28;20188;-56
2022/11/15 02:45:06;;;;;;;10.57;1.40;;;12.50;99.90;;;;;;5033542;28;20184;-56
2022/11/15 02:47:37;;;;;;;9.63;1.17;;;12.60;99.90;;;;;;5051532;28;20177;-56
2022/11/15 02:50:10;;;;;;;9.30;1.20;;;12.50;99.90;;;;;;5052783;28;20161;-57
2022/11/15 02:52:36;;;;;;;6.57;1.30;;;12.50;99.90;;;;;;5052065;28;20295;-56
2022/11/15 02:55:02;;;;;;;5.53;1.10;;;12.40;99.90;;;;;;5052123;28;20621;-56
2022/11/15 02:57:45;;;;;;;8.80;1.27;;;11.20;99.90;;;;;;5050799;28;20189;-56
2022/11/15 03:00:15;;;;;;;4.53;0.77;;;12.40;99.90;;;;;;5045822;28;20216;-56
2022/11/15 03:02:59;;;;;;;9.93;1.20;;;12.30;99.90;;;;;;5043632;28;20185;-56
2022/11/15 03:05:40;;;;;;;8.17;1.13;;;12.20;99.90;;;;;;5051981;28;20192;-59
2022/11/15 03:08:15;;;;;;;12.50;1.13;;;12.30;99.90;;;;;;5052128;28;20590;-58
2022/11/15 03:11:08;;;;;;;7.17;0.93;;;12.20;99.90;;;;;;5052179;28;20180;-57
2022/11/15 03:13:46;;;;;;;5.40;1.30;;;12.20;99.90;;;;;;5052394;28;20201;-58
2022/11/15 03:16:35;;;;;;;4.47;0.90;;;12.20;99.90;;;;;;5052410;28;20177;-58
2022/11/15 03:19:23;;;;;;;5.03;0.57;;;12.30;99.90;;;;;;5044219;28;20239;-57
2022/11/15 03:21:50;;;;;;;2.90;0.57;;;12.30;99.90;;;;;;5051539;28;20184;-57
2022/11/15 03:24:20;;;;;;;5.57;0.90;;;12.20;99.90;;;;;;5052006;28;20268;-60
2022/11/15 03:26:50;;;;;;;4.63;0.87;;;12.20;99.90;;;;;;5051682;28;20173;-57
2022/11/15 03:29:22;;;;;;;4.80;0.53;;;12.30;99.90;;;;;;5041002;28;20185;-57
2022/11/15 03:31:56;;;;;;;3.97;0.50;;;12.10;99.90;;;;;;5052159;28;20242;-57
2022/11/15 03:34:29;;;;;;;4.23;0.70;;;12.20;99.90;;;;;;5052102;28;20180;-58
2022/11/15 03:36:55;;;;;;;4.80;0.80;;;12.30;99.90;;;;;;5051720;28;20177;-57
2022/11/15 03:39:22;;;;;;;3.50;0.50;;;12.40;99.90;;;;;;5051847;28;20543;-57
2022/11/15 03:41:50;;;;;;;4.50;0.70;;;12.50;99.90;;;;;;5051562;28;20204;-57
2022/11/15 03:44:28;;;;;;;2.83;0.30;;;12.40;99.90;;;;;;5051892;28;20189;-57
2022/11/15 03:47:00;;;;;;;4.57;0.73;;;12.40;99.90;;;;;;5050939;28;20180;-58
2022/11/15 03:49:32;;;;;;;2.40;0.43;;;12.40;99.90;;;;;;5051097;28;20170;-57
2022/11/15 03:51:59;;;;;;;3.43;0.60;;;12.40;99.90;;;;;;5049759;28;20216;-57
2022/11/15 03:54:24;;;;;;;2.50;0.60;;;12.30;99.90;;;;;;5048064;28;20228;-57
2022/11/15 03:56:50;;;;;;;1.73;0.43;;;12.40;99.90;;;;;;5047694;28;20566;-57
2022/11/15 03:59:15;;;;;;;4.83;0.87;;;12.30;99.90;;;;;;5039246;28;20189;-57
2022/11/15 04:01:41;;;;;;;2.77;0.40;;;12.40;99.90;;;;;;5038535;28;20184;-57
2022/11/15 04:04:07;;;;;;;4.03;0.77;;;12.40;99.90;;;;;;5051374;28;20692;-57
2022/11/15 04:06:32;;;;;;;1.20;0.50;;;12.40;99.90;;;;;;5051148;28;20236;-57
2022/11/15 04:08:58;;;;;;;2.83;0.57;;;12.40;99.90;;;;;;5050428;28;20658;-57
2022/11/15 04:11:23;;;;;;;1.23;0.20;;;12.40;99.90;;;;;;5051429;28;20249;-57
2022/11/15 04:13:49;;;;;;;1.10;0.30;;;12.50;99.90;;;;;;5051145;28;20216;-57
2022/11/15 04:16:15;;;;;;;1.80;0.30;;;12.80;99.90;;;;;;5051339;28;20691;-57
2022/11/15 04:18:41;;;;;;;0.67;0.30;;;;;;;;;;5051110;28;20190;-57
2022/11/15 04:26:33;;;;;;;1.90;0.50;;;12.50;99.90;;;;;;5036970;28;20636;-57
2022/11/15 04:31:42;;;;;;;2.27;0.67;;;12.60;99.90;;;;;;5051142;28;20315;-57
2022/11/15 04:34:08;;;;;;;1.53;0.20;;;12.20;99.90;;;;;;5051206;28;20253;-57
2022/11/15 04:39:18;;;;;;;0.47;0.20;;;12.50;99.90;;;;;;5051060;28;20586;-57
2022/11/15 04:41:44;;;;;;;0.73;0.10;;;12.50;99.90;;;;;;5050632;28;20260;-57
2022/11/15 04:44:09;;;;;;;0.90;0.13;;;12.60;99.90;;;;;;5050576;28;20176;-57
2022/11/15 04:46:35;;;;;;;1.33;0.30;;;12.50;99.90;;;;;;5050993;28;20191;-57
2022/11/15 04:49:01;;;;;;;1.93;0.50;;;12.60;99.90;;;;;;5050457;28;20651;-57
2022/11/15 04:51:26;;;;;;;1.00;0.30;;;12.50;99.90;;;;;;5050725;28;20172;-57
2022/11/15 04:53:52;;;;;;;1.23;0.10;;;12.70;99.90;;;;;;5050931;28;20318;-57
2022/11/15 04:56:17;;;;;;;0.70;0.20;;;12.10;99.90;;;;;;5050218;28;20612;-57
2022/11/15 04:58:43;;;;;;;0.80;0.27;;;12.60;99.90;;;;;;5050612;28;20185;-57
2022/11/15 05:01:10;;;;;;;0.43;0.10;;;12.60;99.90;;;;;;5050395;28;20208;-56
2022/11/15 05:06:20;;;;;;;2.77;0.53;;;12.60;99.90;;;;;;5048236;28;20590;-56
2022/11/15 05:08:46;;;;;;;3.20;0.60;;;;;;;;;;5032136;28;20189;-57
2022/11/15 05:11:11;;;;;;;3.23;0.50;;;12.60;99.90;;;;;;5030216;28;20174;-57
2022/11/15 05:13:37;;;;;;;1.20;0.53;;;13.10;99.90;;;;;;5048277;28;20231;-57
2022/11/15 05:16:03;;;;;;;1.83;0.50;;;12.60;99.90;;;;;;5050062;28;20169;-57
2022/11/15 05:18:28;;;;;;;4.13;0.40;;;12.60;99.90;;;;;;5049969;28;20250;-57
2022/11/15 05:20:54;;;;;;;4.87;0.40;;;12.60;99.90;;;;;;5053763;28;20177;-57
2022/11/15 05:23:20;;;;;;;1.70;0.40;;;12.60;99.90;;;;;;5053823;28;20251;-56
2022/11/15 05:25:45;;;;;;;2.43;0.70;;;12.50;99.90;;;;;;5054300;28;20167;-57
2022/11/15 05:28:11;;;;;;;1.17;0.30;;;12.80;99.90;;;;;;5054006;28;20189;-57
2022/11/15 05:30:36;;;;;;;4.20;0.67;;;12.70;99.90;;;;;;5054376;28;20244;-56
2022/11/15 05:33:03;;;;;;;3.30;0.47;;;12.70;99.90;;;;;;5054150;28;20217;-57
2022/11/15 05:35:41;;;;;;;1.80;0.60;;;12.90;99.90;;;;;;5054186;28;20678;-57
2022/11/15 05:38:08;;;;;;;1.93;0.43;;;12.70;99.90;;;;;;5054061;28;20833;-57
2022/11/15 05:40:34;;;;;;;2.50;0.77;;;12.80;99.90;;;;;;5054106;28;20182;-57
2022/11/15 05:43:02;;;;;;;8.60;0.87;;;12.70;99.90;;;;;;5054172;28;20279;-57
2022/11/15 05:45:28;;;;;;;2.50;0.50;;;12.80;99.90;;;;;;5054148;28;20207;-57
2022/11/15 05:47:56;;;;;;;9.67;0.63;;;12.80;99.90;;;;;;5054085;28;20177;-57
2022/11/15 05:50:22;;;;;;;6.40;0.83;;;12.70;99.90;;;;;;5053748;28;20270;-57
2022/11/15 05:52:48;;;;;;;2.27;0.53;;;12.70;99.90;;;;;;5053515;28;20241;-57
2022/11/15 05:55:14;;;;;;;4.23;0.47;;;12.70;99.90;;;;;;5053825;28;20188;-57
2022/11/15 05:57:40;;;;;;;5.50;0.60;;;13.20;99.90;;;;;;5053147;28;20173;-58
2022/11/15 06:00:07;;;;;;;4.83;1.00;;;12.70;99.90;;;;;;5053603;28;20187;-56
2022/11/15 06:02:33;;;;;;;2.70;0.50;;;12.80;99.90;;;;;;5053581;28;20185;-57
2022/11/15 06:04:59;;;;;;;1.40;0.50;;;12.70;99.90;;;;;;5053426;28;20188;-56
2022/11/15 06:07:24;;;;;;;3.90;0.67;;;12.60;99.90;;;;;;5053315;28;20244;-56
2022/11/15 06:09:50;;;;;;;2.00;0.70;;;12.50;99.90;;;;;;5053625;28;20215;-56
2022/11/15 06:12:15;;;;;;;5.70;0.60;;;12.80;99.90;;;;;;5053548;28;20212;-57
2022/11/15 06:14:41;;;;;;;1.40;0.50;;;12.60;99.90;;;;;;5053580;28;20188;-56
2022/11/15 06:17:07;;;;;;;5.57;0.90;;;12.70;99.90;;;;;;5053373;28;20173;-56
2022/11/15 06:19:32;;;;;;;5.63;1.00;;;12.70;99.90;;;;;;5052520;28;20200;-56
2022/11/15 06:22:01;;;;;;;5.30;0.83;;;12.60;99.90;;;;;;5051652;28;20187;-56
2022/11/15 06:24:27;;;;;;;4.53;0.80;;;12.60;99.90;;;;;;5052055;28;20181;-58
2022/11/15 06:26:53;;;;;;;4.50;0.80;;;12.70;99.90;;;;;;5046743;28;20239;-56
2022/11/15 06:29:19;;;;;;;6.27;0.63;;;12.70;99.90;;;;;;5042230;28;20189;-56
2022/11/15 06:31:44;;;;;;;6.07;1.07;;;12.70;99.90;;;;;;5051287;28;20201;-57
2022/11/15 06:34:10;;;;;;;5.00;0.83;;;12.70;99.90;;;;;;5051468;28;20185;-57
2022/11/15 06:36:36;;;;;;;6.20;0.93;;;12.80;99.90;;;;;;5037597;28;20219;-57
2022/11/15 06:39:03;;;;;;;2.67;0.70;;;12.80;99.90;;;;;;5052896;28;20173;-55
2022/11/15 06:41:29;;;;;;;5.93;0.80;;;12.80;99.90;;;;;;5052974;28;20185;-56
2022/11/15 06:43:55;;;;;;;1.80;0.57;;;12.70;99.90;;;;;;5052979;28;20275;-56
2022/11/15 06:46:20;;;;;;;7.97;1.03;;;12.90;99.90;;;;;;5052635;28;20185;-56
2022/11/15 06:48:46;;;;;;;3.33;0.60;;;12.50;99.90;;;;;;5052657;28;20172;-56
2022/11/15 06:51:11;;;;;;;6.53;0.80;;;12.80;99.90;;;;;;5034207;28;20177;-57
2022/11/15 06:53:37;;;;;;;2.77;0.63;;;12.80;99.90;;;;;;5051631;28;20288;-56
2022/11/15 06:56:05;;;;;;;5.23;0.70;;;12.90;99.90;;;;;;5051004;28;20264;-56
2022/11/15 06:58:31;;;;;;;3.53;0.53;;;12.90;99.90;;;;;;5052480;28;20233;-56
2022/11/15 07:01:02;;;;;;;4.80;0.80;;;12.90;99.90;;;;;;5052317;28;20177;-56
2022/11/15 07:03:27;;;;;;;3.83;0.80;;;13.00;99.90;;;;;;5051962;28;20555;-56
2022/11/15 07:05:55;;;;;;;5.57;0.87;;;13.00;99.90;;;;;;5052740;28;20165;-57
2022/11/15 07:08:22;;;;;;;6.67;1.37;;;13.00;99.90;;;;;;5052562;28;20209;-57
2022/11/15 07:10:48;;;;;;;6.63;1.07;;;13.10;99.90;;;;;;5052534;28;20177;-57
2022/11/15 07:13:14;;;;;;;5.23;0.70;;;13.30;99.90;;;;;;5052269;28;20687;-57
2022/11/15 07:15:40;;;;;;;7.93;0.93;;;13.20;99.90;;;;;;5051016;28;20180;-57
2022/11/15 07:18:05;;;;;;;8.93;1.70;;;13.10;99.90;;;;;;5032971;28;20477;-57
2022/11/15 07:20:31;;;;;;;5.27;0.80;;;13.30;99.90;;;;;;5050643;28;20172;-57
2022/11/15 07:23:01;;;;;;;2.63;0.70;;;13.20;99.90;;;;;;5043871;28;20594;-57
2022/11/15 07:25:27;;;;;;;4.37;1.13;;;13.30;99.90;;;;;;5031545;28;20205;-57
2022/11/15 07:27:57;;;;;;;9.93;0.93;;;12.90;99.90;;;;;;5042655;28;20270;-57
2022/11/15 07:30:23;;;;;;;2.70;0.93;;;13.30;99.90;;;;;;5052155;28;20181;-57
2022/11/15 07:32:57;;;;;;;6.30;0.60;;;13.30;99.90;;;;;;5050760;28;20248;-56
2022/11/15 07:35:23;;;;;;;40.13;2.20;;;13.10;99.90;;;;;;5051488;28;20231;-57
2022/11/15 07:37:57;;;;;;;2.63;0.77;;;13.10;99.90;;;;;;5051862;28;20181;-57
2022/11/15 07:40:23;;;;;;;5.37;0.60;;;13.30;99.90;;;;;;5051621;28;20165;-56
2022/11/15 07:42:55;;;;;;;3.67;0.60;;;13.30;99.90;;;;;;5051782;28;20255;-57
2022/11/15 07:45:22;;;;;;;4.80;0.70;;;13.30;99.90;;;;;;5050963;28;20226;-57
2022/11/15 07:47:49;;;;;;;5.23;0.40;;;13.20;99.90;;;;;;5050722;28;20651;-57
2022/11/15 07:50:18;;;;;;;5.73;0.67;;;13.20;99.90;;;;;;5050621;28;20533;-57
2022/11/15 07:52:45;;;;;;;4.97;0.90;;;13.20;99.90;;;;;;5033418;28;20292;-57
2022/11/15 07:55:10;;;;;;;3.13;0.47;;;13.30;99.90;;;;;;5051635;28;20628;-57
2022/11/15 07:57:36;;;;;;;5.57;0.53;;;13.30;99.90;;;;;;5051185;28;20184;-56
2022/11/15 08:00:06;;;;;;;2.40;0.50;;;13.30;99.90;;;;;;5050706;28;20188;-56
2022/11/15 08:02:31;;;;;;;3.43;0.80;;;13.30;99.90;;;;;;5050839;28;20180;-57
2022/11/15 08:04:57;;;;;;;2.33;0.37;;;13.30;99.90;;;;;;5049314;28;20183;-57
2022/11/15 08:07:23;;;;;;;3.73;0.63;;;;;;;;;;5050033;28;20306;-57
2022/11/15 08:09:49;;;;;;;2.00;0.60;;;13.40;99.90;;;;;;5051515;28;20192;-56
2022/11/15 08:12:14;;;;;;;1.23;0.60;;;13.40;99.90;;;;;;5045345;28;20670;-56
2022/11/15 08:14:40;;;;;;;3.63;0.50;;;13.40;99.90;;;;;;5051526;28;20181;-56
2022/11/15 08:17:05;;;;;;;2.83;0.57;;;13.40;99.90;;;;;;5051351;28;20677;-56
2022/11/15 08:19:31;;;;;;;4.93;0.70;;;13.50;99.90;;;;;;5051019;28;20177;-56
2022/11/15 08:21:57;;;;;;;2.13;0.60;;;13.50;99.90;;;;;;5051248;28;20639;-56
2022/11/15 08:24:22;;;;;;;4.50;0.90;;;13.60;99.90;;;;;;5051278;28;20184;-56
2022/11/15 08:26:48;;;;;;;2.03;0.63;;;13.50;99.90;;;;;;5051127;28;20200;-58
2022/11/15 08:29:13;;;;;;;1.57;0.43;;;13.60;99.90;;;;;;5051334;28;20612;-58
2022/11/15 08:31:39;;;;;;;1.50;0.50;;;13.60;99.90;;;;;;5051529;28;20192;-58
2022/11/15 08:34:05;;;;;;;1.37;0.43;;;13.30;99.90;;;;;;5051277;28;20705;-58
2022/11/15 08:36:31;;;;;;;3.50;0.50;;;13.80;99.90;;;;;;5051223;28;20219;-58
2022/11/15 08:38:57;;;;;;;3.80;0.30;;;13.70;99.90;;;;;;5051210;28;20193;-58
2022/11/15 08:41:32;;;;;;;4.87;0.57;;;13.80;99.90;;;;;;5048009;28;20184;-58
2022/11/15 08:43:58;;;;;;;2.20;0.67;;;13.80;99.90;;;;;;5050964;28;20369;-57
2022/11/15 08:46:23;;;;;;;3.63;0.50;;;13.80;99.90;;;;;;5042860;28;20632;-57
2022/11/15 08:48:49;;;;;;;1.60;0.30;;;12.70;99.90;;;;;;5048185;28;20659;-57
2022/11/15 08:51:15;;;;;;;2.63;0.50;;;12.80;99.90;;;;;;5047144;28;20169;-57
2022/11/15 08:53:41;;;;;;;2.90;0.37;;;12.50;99.90;;;;;;5049799;28;20201;-57
2022/11/15 08:56:11;;;;;;;2.13;0.50;;;12.40;99.90;;;;;;5050516;28;20177;-57
2022/11/15 08:58:37;;;;;;;1.93;0.50;;;12.40;99.90;;;;;;5050850;28;20173;-57
2022/11/15 09:01:04;;;;;;;3.07;0.70;;;12.40;99.90;;;;;;5050351;28;20177;-57
2022/11/15 09:03:30;;;;;;;0.90;0.30;;;12.40;99.90;;;;;;5049773;28;20183;-57
2022/11/15 09:06:00;;;;;;;2.77;0.50;;;12.40;99.90;;;;;;5045175;28;20172;-56
2022/11/15 09:08:30;;;;;;;3.47;0.40;;;12.30;99.90;;;;;;5049064;28;20268;-56
2022/11/15 09:10:56;;;;;;;0.90;0.40;;;12.40;99.90;;;;;;5044935;28;20173;-56
2022/11/15 09:13:22;;;;;;;1.60;0.47;;;12.10;99.90;;;;;;5030898;28;20574;-55
2022/11/15 09:15:48;;;;;;;1.47;0.37;;;11.90;99.90;;;;;;5030827;28;20220;-56
2022/11/15 09:18:13;;;;;;;2.73;0.50;;;11.90;99.90;;;;;;5030621;28;20248;-56
2022/11/15 09:20:39;;;;;;;5.57;0.70;;;11.90;99.90;;;;;;5045009;28;20169;-56
2022/11/15 09:23:05;;;;;;;3.23;0.70;;;11.80;99.90;;;;;;5050195;28;20616;-56
2022/11/15 09:25:31;;;;;;;3.90;0.83;;;;;;;;;;5050854;28;20167;-56
2022/11/15 09:27:57;;;;;;;3.07;0.80;;;11.80;99.90;;;;;;5050813;28;20172;-56
2022/11/15 09:30:24;;;;;;;2.03;0.63;;;11.70;99.90;;;;;;5049342;28;20179;-56
2022/11/15 09:32:50;;;;;;;3.40;0.50;;;12.60;99.90;;;;;;5049350;28;20209;-57
2022/11/15 09:35:16;;;;;;;5.73;0.90;;;11.90;99.90;;;;;;5043371;28;20228;-57
2022/11/15 09:37:42;;;;;;;7.63;0.90;;;11.60;99.90;;;;;;5043783;28;20193;-57
2022/11/15 09:40:16;;;;;;;4.57;0.67;;;11.80;99.90;;;;;;5040967;28;20185;-57
2022/11/15 09:42:58;;;;;;;6.33;0.83;;;11.60;99.90;;;;;;5045643;28;20181;-57
2022/11/15 09:45:34;;;;;;;6.83;1.00;;;11.70;99.90;;;;;;5034463;28;20170;-57
2022/11/15 09:48:23;;;;;;;8.70;1.37;;;11.70;99.90;;;;;;5046926;28;20200;-56
2022/11/15 09:50:50;;;;;;;9.30;1.23;;;11.70;99.90;;;;;;5049954;28;20598;-57
2022/11/15 09:53:40;;;;;;;9.00;1.27;;;11.70;99.90;;;;;;5050101;28;20221;-57
2022/11/15 09:56:18;;;;;;;11.10;1.00;;;11.70;99.90;;;;;;5046305;28;20733;-55
2022/11/15 09:59:02;;;;;;;6.43;1.37;;;11.60;99.90;;;;;;5047925;28;20168;-56
2022/11/15 10:02:03;;;;;;;7.00;1.20;;;11.40;99.90;;;;;;5042717;28;20549;-56
2022/11/15 10:04:29;;;;;;;6.80;1.33;;;11.50;99.90;;;;;;5049512;28;20177;-56
2022/11/15 10:07:26;;;;;;;11.73;1.00;;;11.30;99.90;;;;;;5043488;28;20228;-57
2022/11/15 10:09:56;;;;;;;8.63;1.30;;;11.60;99.90;;;;;;5045267;28;20219;-56
2022/11/15 10:12:24;;;;;;;5.67;1.27;;;11.50;99.90;;;;;;5053321;28;20271;-56
2022/11/15 10:15:00;;;;;;;7.67;1.37;;;11.50;99.90;;;;;;5053287;28;20204;-56
2022/11/15 10:18:05;;;;;;;6.77;1.10;;;11.60;99.90;;;;;;5053240;28;20217;-57
2022/11/15 10:20:39;;;;;;;5.33;1.20;;;11.50;99.90;;;;;;5028696;28;20659;-56
2022/11/15 10:23:13;;;;;;;7.93;1.43;;;11.30;99.90;;;;;;5053629;28;20181;-57
2022/11/15 10:25:39;;;;;;;6.33;1.13;;;;;;;;;;5053539;28;20223;-56
2022/11/15 10:28:21;;;;;;;7.17;1.40;;;11.50;99.90;;;;;;5052458;28;20181;-57
2022/11/15 10:30:52;;;;;;;7.63;1.80;;;11.50;99.90;;;;;;5046444;28;20539;-56
2022/11/15 10:33:38;;;;;;;5.67;1.30;;;11.40;99.90;;;;;;5052367;28;20236;-56
2022/11/15 10:36:13;;;;;;;6.17;1.50;;;11.20;99.90;;;;;;5053152;28;20177;-56
2022/11/15 10:38:48;;;;;;;10.30;1.40;;;11.60;99.90;;;;;;5053034;28;20203;-56
2022/11/15 10:41:35;;;;;;;7.13;1.23;;;11.60;99.90;;;;;;5052136;28;20172;-57
2022/11/15 10:44:06;;;;;;;9.70;1.83;;;11.70;99.90;;;;;;5045677;28;20275;-56
2022/11/15 10:46:32;;;;;;;8.67;1.90;;;11.70;99.90;;;;;;5037717;28;20206;-56
2022/11/15 10:49:14;;;;;;;7.67;1.50;;;11.90;99.90;;;;;;5052437;28;20203;-56
2022/11/15 10:51:52;;;;;;;9.00;2.10;;;12.00;99.90;;;;;;5051889;28;20710;-56
2022/11/15 10:54:28;;;;;;;12.13;1.67;;;12.00;99.90;;;;;;5051660;28;20209;-57
2022/11/15 10:56:58;;;;;;;8.73;1.70;;;12.00;99.90;;;;;;5051697;28;20172;-57
2022/11/15 10:59:30;;;;;;;9.53;1.67;;;12.10;99.90;;;;;;5051534;28;20173;-56
2022/11/15 11:01:56;;;;;;;8.83;1.77;;;12.30;99.90;;;;;;5052818;28;20169;-57
2022/11/15 11:04:22;;;;;;;10.07;1.90;;;12.50;99.90;;;;;;5052887;28;20540;-57
2022/11/15 11:06:59;;;;;;;12.10;1.53;;;13.10;99.90;;;;;;5049258;28;20756;-57
2022/11/15 11:09:33;;;;;;;11.77;1.73;;;14.30;99.90;;;;;;5051468;28;20173;-57
2022/11/15 11:11:59;;;;;;;7.00;1.47;;;13.80;99.90;;;;;;5052250;28;20174;-56
2022/11/15 11:14:30;;;;;;;8.70;1.80;;;13.80;99.90;;;;;;5052026;28;20242;-56
2022/11/15 11:17:33;;;;;;;11.03;2.00;;;13.60;99.90;;;;;;5051855;28;20256;-56
2022/11/15 11:20:29;;;;;;;8.90;1.87;;;13.30;99.90;;;;;;5052179;28;20267;-56
2022/11/15 11:22:55;;;;;;;10.40;1.90;;;12.80;99.90;;;;;;5052257;28;20181;-56
2022/11/15 11:25:34;;;;;;;4.47;1.63;;;12.80;99.90;;;;;;5052240;28;20541;-57
2022/11/15 11:28:21;;;;;;;7.03;1.93;;;12.80;99.90;;;;;;5051399;28;20205;-56
2022/11/15 11:30:53;;;;;;;6.27;1.83;;;13.10;99.90;;;;;;5052253;28;20173;-55
2022/11/15 11:33:21;;;;;;;9.77;1.93;;;13.60;99.90;;;;;;5050550;28;20304;-55
2022/11/15 11:35:53;;;;;;;6.07;1.87;;;14.00;99.90;;;;;;5051312;28;20721;-56
2022/11/15 11:38:21;;;;;;;10.77;1.80;;;14.00;99.90;;;;;;5051653;28;20231;-54
2022/11/15 11:41:07;;;;;;;9.27;1.70;;;14.30;99.90;;;;;;5051460;28;20192;-55
2022/11/15 11:43:45;;;;;;;8.48;1.40;;;14.30;99.90;;;;;;5051393;28;20192;-55
2022/11/15 11:46:32;;;;;;;6.07;1.33;;;14.20;99.90;;;;;;5051412;28;20169;-56
2022/11/15 11:49:08;;;;;;;6.83;1.37;;;13.70;99.90;;;;;;5051225;28;20172;-55
2022/11/15 11:51:45;;;;;;;7.30;1.50;;;13.60;99.90;;;;;;5045161;28;20201;-55
2022/11/15 11:54:22;;;;;;;7.43;1.23;;;13.40;99.90;;;;;;5051215;28;20569;-56
2022/11/15 11:56:50;;;;;;;10.37;1.67;;;13.10;99.90;;;;;;5051408;28;20234;-56
2022/11/15 11:59:31;;;;;;;6.53;1.77;;;13.10;99.90;;;;;;5051190;28;20169;-57
2022/11/15 12:02:01;;;;;;;10.97;1.60;;;13.20;99.90;;;;;;5051469;28;20177;-56
2022/11/15 12:04:43;;;;;;;6.03;0.97;;;13.10;99.90;;;;;;5051012;28;20404;-56
2022/11/15 12:07:17;;;;;;;6.03;1.17;;;12.90;99.90;;;;;;5050860;28;20228;-57
2022/11/15 12:10:04;;;;;;;7.87;1.90;;;13.00;99.90;;;;;;5050964;28;20177;-56
2022/11/15 12:12:48;;;;;;;8.60;3.57;;;13.10;99.90;;;;;;5050970;28;20206;-57
2022/11/15 12:15:16;;;;;;;17.33;6.93;;;13.80;99.90;;;;;;5051186;28;20173;-56
2022/11/15 12:17:42;;;;;;;10.23;2.03;;;14.40;99.90;;;;;;5051118;28;20227;-56
2022/11/15 12:20:18;;;;;;;44.77;15.23;;;14.40;99.90;;;;;;5050754;28;20169;-56
2022/11/15 12:23:06;;;;;;;8.50;2.10;;;15.20;99.90;;;;;;5050625;28;20189;-55
2022/11/15 12:25:44;;;;;;;6.03;1.40;;;17.60;99.90;;;;;;5050673;28;20187;-55
2022/11/15 12:28:12;;;;;;;4.10;1.60;;;20.80;99.90;;;;;;5050660;28;20161;-57
2022/11/15 12:31:14;;;;;;;9.18;1.90;;;18.70;99.90;;;;;;5050249;28;20216;-56
2022/11/15 12:33:45;;;;;;;11.07;3.00;;;17.20;99.90;;;;;;5050993;28;20270;-56
2022/11/15 12:36:30;;;;;;;10.95;3.55;;;16.10;99.90;;;;;;5050774;28;20169;-56
2022/11/15 12:39:02;;;;;;;12.25;1.45;;;15.00;99.90;;;;;;5050727;28;20173;-55
2022/11/15 12:41:41;;;;;;;13.15;1.98;;;14.80;99.90;;;;;;5050703;28;20173;-55
2022/11/15 12:44:13;;;;;;;17.30;2.00;;;14.90;99.90;;;;;;5050834;28;20195;-56
2022/11/15 12:46:39;;;;;;;10.10;1.88;;;14.90;99.90;;;;;;5044429;28;20211;-56
2022/11/15 12:49:30;;;;;;;9.13;1.90;;;14.60;99.90;;;;;;5050201;28;20173;-56
2022/11/15 12:51:59;;;;;;;6.85;1.65;;;14.30;99.90;;;;;;5050273;28;20196;-56
2022/11/15 12:54:24;;;;;;;11.25;1.83;;;13.80;99.90;;;;;;5050498;28;20185;-56
2022/11/15 12:57:19;;;;;;;12.02;2.30;;;14.10;99.90;;;;;;5050588;28;20173;-56
2022/11/15 13:00:02;;;;;;;7.07;1.50;;;14.10;99.90;;;;;;5032704;28;20260;-55
2022/11/15 13:02:30;;;;;;;14.38;2.80;;;14.20;99.90;;;;;;5050564;28;20197;-57
2022/11/15 13:05:15;;;;;;;15.70;2.93;;;14.00;99.90;;;;;;5044396;28;20173;-56
2022/11/15 13:07:41;;;;;;;14.82;1.73;;;13.90;99.90;;;;;;5048966;28;20270;-56
2022/11/15 13:10:09;;;;;;;22.80;6.20;;;13.80;99.90;;;;;;5050360;28;20186;-57
2022/11/15 13:12:38;;;;;;;14.55;2.85;;;14.10;99.90;;;;;;5050316;28;20209;-56
2022/11/15 13:15:13;;;;;;;17.52;3.95;;;14.20;99.90;;;;;;5050050;28;20246;-56
2022/11/15 13:17:53;;;;;;;23.77;2.92;;;14.60;99.90;;;;;;5050392;28;20168;-56